sensor_id;sensor_type;location;lat;lon;timestamp;pressure;altitude;pressure_sealevel;temperature;humidity
62201;BME280;48197;42.732;27.192;2022-08-25T07:50:50;99136.59;;;27.43;60.91
62201;BME280;48197;42.732;27.192;2022-08-25T07:53:30;99142.19;;;27.68;59.20
62201;BME280;48197;42.732;27.192;2022-08-25T07:56:00;99139.59;;;27.70;59.73
62201;BME280;48197;42.732;27.192;2022-08-25T07:58:27;99139.66;;;27.83;58.74
62201;BME280;48197;42.732;27.192;2022-08-25T08:00:54;99135.50;;;27.84;58.39
62201;BME280;48197;42.732;27.192;2022-08-25T08:03:21;99139.34;;;27.68;58.70
62201;BME280;48197;42.732;27.192;2022-08-25T08:05:47;99135.81;;;27.81;58.38
62201;BME280;48197;42.732;27.192;2022-08-25T08:08:14;99136.72;;;28.08;57.89
62201;BME280;48197;42.732;27.192;2022-08-25T08:10:40;99134.09;;;28.10;57.57
62201;BME280;48197;42.732;27.192;2022-08-25T08:13:06;99133.59;;;27.93;58.35
62201;BME280;48197;42.732;27.192;2022-08-25T08:15:34;99125.22;;;27.81;58.62
62201;BME280;48197;42.732;27.192;2022-08-25T08:18:02;99133.69;;;27.68;58.32
62201;BME280;48197;42.732;27.192;2022-08-25T08:20:29;99126.75;;;28.01;58.06
62201;BME280;48197;42.732;27.192;2022-08-25T08:23:00;99118.88;;;28.40;56.53
62201;BME280;48197;42.732;27.192;2022-08-25T08:25:26;99117.53;;;28.60;56.46
62201;BME280;48197;42.732;27.192;2022-08-25T08:27:52;99108.44;;;28.61;55.57
62201;BME280;48197;42.732;27.192;2022-08-25T08:30:18;99108.25;;;28.59;55.94
62201;BME280;48197;42.732;27.192;2022-08-25T08:32:45;99111.53;;;28.77;55.39
62201;BME280;48197;42.732;27.192;2022-08-25T08:35:13;99113.72;;;28.57;55.62
62201;BME280;48197;42.732;27.192;2022-08-25T08:37:43;99110.44;;;28.66;55.33
62201;BME280;48197;42.732;27.192;2022-08-25T08:40:11;99107.03;;;28.68;55.96
62201;BME280;48197;42.732;27.192;2022-08-25T08:42:44;99091.94;;;28.73;55.68
62201;BME280;48197;42.732;27.192;2022-08-25T08:45:21;99095.78;;;28.62;55.07
62201;BME280;48197;42.732;27.192;2022-08-25T08:48:15;99102.22;;;28.76;55.07
62201;BME280;48197;42.732;27.192;2022-08-25T08:53:22;99089.66;;;28.98;55.52
62201;BME280;48197;42.732;27.192;2022-08-25T08:55:55;99076.09;;;29.86;52.24
62201;BME280;48197;42.732;27.192;2022-08-25T09:01:07;99085.91;;;30.98;49.05
62201;BME280;48197;42.732;27.192;2022-08-25T09:03:39;99085.53;;;30.94;48.62
62201;BME280;48197;42.732;27.192;2022-08-25T09:06:23;99090.47;;;31.38;48.44
62201;BME280;48197;42.732;27.192;2022-08-25T09:08:53;99078.97;;;31.74;48.13
62201;BME280;48197;42.732;27.192;2022-08-25T09:28:05;99064.13;;;31.83;45.50
62201;BME280;48197;42.732;27.192;2022-08-25T09:33:37;99050.63;;;32.07;46.31
62201;BME280;48197;42.732;27.192;2022-08-25T09:48:21;99033.84;;;31.65;46.39
62201;BME280;48197;42.732;27.192;2022-08-25T09:50:53;99032.06;;;31.46;46.70
62201;BME280;48197;42.732;27.192;2022-08-25T09:53:24;99030.06;;;31.26;47.06
62201;BME280;48197;42.732;27.192;2022-08-25T09:55:58;99035.81;;;31.33;47.33
62201;BME280;48197;42.732;27.192;2022-08-25T09:58:26;99037.78;;;31.46;46.65
62201;BME280;48197;42.732;27.192;2022-08-25T10:01:04;99032.13;;;31.69;46.38
62201;BME280;48197;42.732;27.192;2022-08-25T10:03:33;99020.91;;;31.87;45.81
62201;BME280;48197;42.732;27.192;2022-08-25T10:06:02;99037.50;;;32.19;44.76
62201;BME280;48197;42.732;27.192;2022-08-25T10:08:38;99037.50;;;32.19;44.85
62201;BME280;48197;42.732;27.192;2022-08-25T10:11:10;99029.47;;;32.41;44.62
62201;BME280;48197;42.732;27.192;2022-08-25T10:13:41;99021.06;;;32.43;44.54
62201;BME280;48197;42.732;27.192;2022-08-25T10:16:22;99025.84;;;32.48;44.15
62201;BME280;48197;42.732;27.192;2022-08-25T10:19:00;99029.72;;;32.99;43.02
62201;BME280;48197;42.732;27.192;2022-08-25T10:21:28;99038.84;;;33.12;42.43
62201;BME280;48197;42.732;27.192;2022-08-25T10:23:55;99026.84;;;32.99;42.07
62201;BME280;48197;42.732;27.192;2022-08-25T10:26:27;99017.91;;;33.35;41.47
62201;BME280;48197;42.732;27.192;2022-08-25T10:31:25;99011.75;;;32.50;42.47
62201;BME280;48197;42.732;27.192;2022-08-25T10:36:34;98994.59;;;31.96;43.13
62201;BME280;48197;42.732;27.192;2022-08-25T10:39:06;98994.84;;;32.06;42.32
62201;BME280;48197;42.732;27.192;2022-08-25T10:47:07;99014.25;;;33.42;40.10
62201;BME280;48197;42.732;27.192;2022-08-25T10:49:41;99029.13;;;33.48;39.35
62201;BME280;48197;42.732;27.192;2022-08-25T10:52:14;99020.38;;;33.39;39.65
62201;BME280;48197;42.732;27.192;2022-08-25T10:54:57;99012.09;;;33.83;38.67
62201;BME280;48197;42.732;27.192;2022-08-25T10:57:35;99017.22;;;33.60;38.91
62201;BME280;48197;42.732;27.192;2022-08-25T11:00:20;99019.75;;;32.59;40.01
62201;BME280;48197;42.732;27.192;2022-08-25T11:05:47;99016.75;;;33.38;39.69
62201;BME280;48197;42.732;27.192;2022-08-25T11:21:05;98991.25;;;34.85;35.49
62201;BME280;48197;42.732;27.192;2022-08-25T11:31:36;98972.94;;;34.03;36.86
62201;BME280;48197;42.732;27.192;2022-08-25T11:34:05;98971.41;;;34.45;36.57
62201;BME280;48197;42.732;27.192;2022-08-25T11:36:36;98966.94;;;34.34;36.33
62201;BME280;48197;42.732;27.192;2022-08-25T11:41:58;98935.13;;;33.54;37.38
62201;BME280;48197;42.732;27.192;2022-08-25T11:44:35;98944.22;;;33.10;37.82
62201;BME280;48197;42.732;27.192;2022-08-25T11:47:24;98936.84;;;32.92;38.36
62201;BME280;48197;42.732;27.192;2022-08-25T11:50:07;98936.66;;;32.90;38.20
62201;BME280;48197;42.732;27.192;2022-08-25T11:55:43;98952.13;;;32.87;38.49
62201;BME280;48197;42.732;27.192;2022-08-25T12:00:55;98974.75;;;32.37;39.90
62201;BME280;48197;42.732;27.192;2022-08-25T12:08:51;98963.13;;;31.27;41.49
62201;BME280;48197;42.732;27.192;2022-08-25T12:24:43;98968.97;;;30.69;42.54
62201;BME280;48197;42.732;27.192;2022-08-25T12:29:59;98963.50;;;30.35;42.96
62201;BME280;48197;42.732;27.192;2022-08-25T12:32:43;98982.59;;;30.27;43.22
62201;BME280;48197;42.732;27.192;2022-08-25T12:43:11;98995.84;;;27.54;61.85
62201;BME280;48197;42.732;27.192;2022-08-25T12:45:41;99001.53;;;27.16;64.54
62201;BME280;48197;42.732;27.192;2022-08-25T12:50:56;99016.31;;;26.71;67.22
62201;BME280;48197;42.732;27.192;2022-08-25T13:01:24;99026.56;;;26.49;68.13
62201;BME280;48197;42.732;27.192;2022-08-25T13:04:03;99025.38;;;26.39;68.78
62201;BME280;48197;42.732;27.192;2022-08-25T13:14:40;99025.47;;;26.58;69.67
62201;BME280;48197;42.732;27.192;2022-08-25T13:17:07;99039.34;;;26.61;69.32
62201;BME280;48197;42.732;27.192;2022-08-25T13:19:35;99036.19;;;26.65;69.57
62201;BME280;48197;42.732;27.192;2022-08-25T13:22:08;99028.25;;;26.63;69.93
62201;BME280;48197;42.732;27.192;2022-08-25T13:24:40;99021.88;;;26.57;69.91
62201;BME280;48197;42.732;27.192;2022-08-25T13:27:08;99021.91;;;26.52;70.86
62201;BME280;48197;42.732;27.192;2022-08-25T13:29:55;99012.16;;;26.47;71.00
62201;BME280;48197;42.732;27.192;2022-08-25T13:32:25;99013.81;;;26.37;71.63
62201;BME280;48197;42.732;27.192;2022-08-25T13:35:06;99015.38;;;26.38;71.66
62201;BME280;48197;42.732;27.192;2022-08-25T13:37:33;99011.19;;;26.44;72.00
62201;BME280;48197;42.732;27.192;2022-08-25T13:42:37;99019.09;;;26.76;71.27
62201;BME280;48197;42.732;27.192;2022-08-25T13:45:04;99025.44;;;26.82;71.00
62201;BME280;48197;42.732;27.192;2022-08-25T13:47:41;99018.41;;;26.89;70.79
62201;BME280;48197;42.732;27.192;2022-08-25T13:52:54;99023.22;;;27.13;70.30
62201;BME280;48197;42.732;27.192;2022-08-25T13:55:32;99019.41;;;27.11;70.45
62201;BME280;48197;42.732;27.192;2022-08-25T13:58:01;99026.00;;;27.19;70.27
62201;BME280;48197;42.732;27.192;2022-08-25T14:00:30;99022.56;;;27.26;69.95
62201;BME280;48197;42.732;27.192;2022-08-25T14:03:00;99029.38;;;27.36;69.69
62201;BME280;48197;42.732;27.192;2022-08-25T14:07:58;99021.56;;;27.42;69.49
62201;BME280;48197;42.732;27.192;2022-08-25T14:10:44;99012.91;;;27.35;69.72
62201;BME280;48197;42.732;27.192;2022-08-25T14:13:31;99014.00;;;27.32;69.85
62201;BME280;48197;42.732;27.192;2022-08-25T14:16:12;99012.81;;;27.40;69.55
62201;BME280;48197;42.732;27.192;2022-08-25T14:18:52;99011.66;;;27.49;69.75
62201;BME280;48197;42.732;27.192;2022-08-25T14:21:24;99004.50;;;27.61;68.85
62201;BME280;48197;42.732;27.192;2022-08-25T14:23:52;99003.41;;;27.64;68.82
62201;BME280;48197;42.732;27.192;2022-08-25T14:26:20;99002.34;;;27.67;68.84
62201;BME280;48197;42.732;27.192;2022-08-25T14:28:47;99012.16;;;27.66;68.71
62201;BME280;48197;42.732;27.192;2022-08-25T14:31:15;99020.91;;;27.68;68.69
62201;BME280;48197;42.732;27.192;2022-08-25T14:33:55;99014.47;;;27.68;68.95
62201;BME280;48197;42.732;27.192;2022-08-25T14:36:24;99011.25;;;27.58;69.41
62201;BME280;48197;42.732;27.192;2022-08-25T14:38:51;99008.06;;;27.48;69.30
62201;BME280;48197;42.732;27.192;2022-08-25T14:41:19;99016.50;;;27.35;69.79
62201;BME280;48197;42.732;27.192;2022-08-25T14:43:47;99009.94;;;27.27;70.26
62201;BME280;48197;42.732;27.192;2022-08-25T14:46:17;99011.81;;;27.19;70.41
62201;BME280;48197;42.732;27.192;2022-08-25T14:48:45;99011.38;;;27.15;70.79
62201;BME280;48197;42.732;27.192;2022-08-25T14:51:13;99011.66;;;27.11;70.88
62201;BME280;48197;42.732;27.192;2022-08-25T14:53:41;99016.09;;;27.06;71.55
62201;BME280;48197;42.732;27.192;2022-08-25T14:56:08;99008.13;;;27.05;71.30
62201;BME280;48197;42.732;27.192;2022-08-25T14:58:35;99012.97;;;27.10;71.53
62201;BME280;48197;42.732;27.192;2022-08-25T15:01:03;99020.69;;;27.09;71.27
62201;BME280;48197;42.732;27.192;2022-08-25T15:03:32;99040.31;;;27.07;71.97
62201;BME280;48197;42.732;27.192;2022-08-25T15:06:01;99028.97;;;27.07;72.11
62201;BME280;48197;42.732;27.192;2022-08-25T15:08:29;99030.53;;;27.08;72.16
62201;BME280;48197;42.732;27.192;2022-08-25T15:11:14;99034.75;;;27.02;72.51
62201;BME280;48197;42.732;27.192;2022-08-25T15:13:41;99021.00;;;26.87;72.78
62201;BME280;48197;42.732;27.192;2022-08-25T15:16:16;99012.41;;;26.74;73.59
62201;BME280;48197;42.732;27.192;2022-08-25T15:18:46;99010.94;;;26.67;73.65
62201;BME280;48197;42.732;27.192;2022-08-25T15:21:13;98998.44;;;26.57;74.30
62201;BME280;48197;42.732;27.192;2022-08-25T15:23:40;98996.38;;;26.57;74.78
62201;BME280;48197;42.732;27.192;2022-08-25T15:26:09;98994.47;;;26.65;74.73
62201;BME280;48197;42.732;27.192;2022-08-25T15:28:42;98996.41;;;26.76;74.20
62201;BME280;48197;42.732;27.192;2022-08-25T15:31:16;98992.72;;;26.81;74.45
62201;BME280;48197;42.732;27.192;2022-08-25T15:33:45;98992.72;;;26.81;74.30
62201;BME280;48197;42.732;27.192;2022-08-25T15:36:13;98994.03;;;26.80;74.67
62201;BME280;48197;42.732;27.192;2022-08-25T15:38:42;98997.22;;;26.71;75.02
62201;BME280;48197;42.732;27.192;2022-08-25T15:41:09;98998.44;;;26.57;75.37
62201;BME280;48197;42.732;27.192;2022-08-25T15:43:36;98995.00;;;26.39;76.19
62201;BME280;48197;42.732;27.192;2022-08-25T15:46:04;98988.28;;;26.18;77.31
62201;BME280;48197;42.732;27.192;2022-08-25T15:48:32;98994.09;;;26.01;78.21
62201;BME280;48197;42.732;27.192;2022-08-25T15:51:00;98986.78;;;25.81;78.77
62201;BME280;48197;42.732;27.192;2022-08-25T15:53:28;98979.22;;;25.64;79.64
62201;BME280;48197;42.732;27.192;2022-08-25T15:55:55;98989.09;;;25.52;80.30
62201;BME280;48197;42.732;27.192;2022-08-25T15:58:25;98972.50;;;25.37;81.02
62201;BME280;48197;42.732;27.192;2022-08-25T16:00:52;98969.22;;;25.27;81.64
62201;BME280;48197;42.732;27.192;2022-08-25T16:03:20;98972.59;;;25.15;82.52
62201;BME280;48197;42.732;27.192;2022-08-25T16:05:46;98979.06;;;25.10;83.12
62201;BME280;48197;42.732;27.192;2022-08-25T16:08:13;98979.88;;;25.04;83.44
62201;BME280;48197;42.732;27.192;2022-08-25T16:10:41;98972.44;;;25.01;83.92
62201;BME280;48197;42.732;27.192;2022-08-25T16:13:09;98978.09;;;25.01;82.93
62201;BME280;48197;42.732;27.192;2022-08-25T16:15:36;98975.94;;;25.19;73.32
62201;BME280;48197;42.732;27.192;2022-08-25T16:18:03;98963.22;;;25.37;69.18
62201;BME280;48197;42.732;27.192;2022-08-25T16:20:31;98968.75;;;25.54;61.09
62201;BME280;48197;42.732;27.192;2022-08-25T16:22:58;98969.09;;;25.75;57.50
62201;BME280;48197;42.732;27.192;2022-08-25T16:25:28;98960.25;;;25.90;51.46
62201;BME280;48197;42.732;27.192;2022-08-25T16:27:55;98958.47;;;26.11;49.29
62201;BME280;48197;42.732;27.192;2022-08-25T16:30:22;98951.41;;;26.23;47.41
62201;BME280;48197;42.732;27.192;2022-08-25T16:32:49;98956.69;;;26.33;45.43
62201;BME280;48197;42.732;27.192;2022-08-25T16:35:16;98961.56;;;26.38;44.13
62201;BME280;48197;42.732;27.192;2022-08-25T16:37:43;98954.28;;;26.42;43.24
62201;BME280;48197;42.732;27.192;2022-08-25T16:40:10;98958.16;;;26.39;43.63
62201;BME280;48197;42.732;27.192;2022-08-25T16:42:38;98950.22;;;26.38;42.79
62201;BME280;48197;42.732;27.192;2022-08-25T16:45:05;98958.47;;;26.36;43.27
62201;BME280;48197;42.732;27.192;2022-08-25T16:47:34;98953.41;;;26.28;43.12
62201;BME280;48197;42.732;27.192;2022-08-25T16:50:03;98960.41;;;26.22;42.49
62201;BME280;48197;42.732;27.192;2022-08-25T16:52:30;98956.53;;;26.25;42.13
62201;BME280;48197;42.732;27.192;2022-08-25T16:55:16;98953.75;;;26.19;42.40
62201;BME280;48197;42.732;27.192;2022-08-25T16:57:43;98948.38;;;26.16;42.22
62201;BME280;48197;42.732;27.192;2022-08-25T17:00:11;98941.50;;;26.11;41.92
62201;BME280;48197;42.732;27.192;2022-08-25T17:02:39;98932.47;;;26.13;41.50
62201;BME280;48197;42.732;27.192;2022-08-25T17:05:06;98935.31;;;26.13;41.73
62201;BME280;48197;42.732;27.192;2022-08-25T17:07:34;98928.66;;;26.10;41.59
62201;BME280;48197;42.732;27.192;2022-08-25T17:10:05;98935.13;;;26.05;41.74
62201;BME280;48197;42.732;27.192;2022-08-25T17:12:32;98931.56;;;25.99;41.43
62201;BME280;48197;42.732;27.192;2022-08-25T17:14:59;98931.88;;;25.95;40.97
62201;BME280;48197;42.732;27.192;2022-08-25T17:17:26;98934.19;;;25.97;40.71
62201;BME280;48197;42.732;27.192;2022-08-25T17:19:53;98926.75;;;25.94;40.42
62201;BME280;48197;42.732;27.192;2022-08-25T17:22:20;98927.09;;;25.84;40.62
62201;BME280;48197;42.732;27.192;2022-08-25T17:24:47;98929.25;;;25.73;40.78
62201;BME280;48197;42.732;27.192;2022-08-25T17:27:14;98932.78;;;25.54;41.34
62201;BME280;48197;42.732;27.192;2022-08-25T17:29:41;98933.09;;;25.45;41.33
62201;BME280;48197;42.732;27.192;2022-08-25T17:32:08;98922.88;;;25.36;41.35
62201;BME280;48197;42.732;27.192;2022-08-25T17:34:35;98925.03;;;25.19;41.85
62201;BME280;48197;42.732;27.192;2022-08-25T17:37:02;98926.16;;;25.04;42.03
62201;BME280;48197;42.732;27.192;2022-08-25T17:39:30;98928.78;;;24.97;42.07
62201;BME280;48197;42.732;27.192;2022-08-25T17:41:57;98933.84;;;25.10;41.08
62201;BME280;48197;42.732;27.192;2022-08-25T17:44:24;98941.94;;;25.30;40.87
62201;BME280;48197;42.732;27.192;2022-08-25T17:46:51;98950.13;;;25.39;40.32
62201;BME280;48197;42.732;27.192;2022-08-25T17:49:18;98957.03;;;25.44;40.04
62201;BME280;48197;42.732;27.192;2022-08-25T17:51:44;98966.25;;;25.44;39.93
62201;BME280;48197;42.732;27.192;2022-08-25T17:54:11;98974.25;;;25.40;40.20
62201;BME280;48197;42.732;27.192;2022-08-25T17:56:39;98976.06;;;25.43;39.90
62201;BME280;48197;42.732;27.192;2022-08-25T17:59:06;98974.00;;;25.44;40.07
62201;BME280;48197;42.732;27.192;2022-08-25T18:01:33;98981.22;;;25.39;40.27
62201;BME280;48197;42.732;27.192;2022-08-25T18:04:02;98983.25;;;25.44;39.77
62201;BME280;48197;42.732;27.192;2022-08-25T18:06:31;98982.13;;;25.53;39.35
62201;BME280;48197;42.732;27.192;2022-08-25T18:08:58;98985.41;;;25.63;39.39
62201;BME280;48197;42.732;27.192;2022-08-25T18:11:26;98992.31;;;25.67;39.30
62201;BME280;48197;42.732;27.192;2022-08-25T18:13:53;98993.28;;;25.76;39.11
62201;BME280;48197;42.732;27.192;2022-08-25T18:16:29;98987.03;;;25.83;39.14
62201;BME280;48197;42.732;27.192;2022-08-25T18:18:57;98997.28;;;25.86;38.94
62201;BME280;48197;42.732;27.192;2022-08-25T18:21:29;99002.44;;;25.87;39.16
62201;BME280;48197;42.732;27.192;2022-08-25T18:24:38;99008.44;;;25.78;39.32
62201;BME280;48197;42.732;27.192;2022-08-25T18:27:04;99013.41;;;25.66;39.78
62201;BME280;48197;42.732;27.192;2022-08-25T18:29:31;99011.44;;;25.56;40.14
62201;BME280;48197;42.732;27.192;2022-08-25T18:31:58;99012.81;;;25.43;40.64
62201;BME280;48197;42.732;27.192;2022-08-25T18:34:25;99009.81;;;25.30;40.83
62201;BME280;48197;42.732;27.192;2022-08-25T18:36:52;99008.34;;;25.12;41.36
62201;BME280;48197;42.732;27.192;2022-08-25T18:39:19;99004.63;;;24.87;42.03
62201;BME280;48197;42.732;27.192;2022-08-25T18:42:18;99004.75;;;24.53;43.02
62201;BME280;48197;42.732;27.192;2022-08-25T18:44:45;99005.56;;;24.37;43.22
62201;BME280;48197;42.732;27.192;2022-08-25T18:47:12;99020.22;;;24.18;44.00
62201;BME280;48197;42.732;27.192;2022-08-25T18:49:38;99024.34;;;24.06;44.48
62201;BME280;48197;42.732;27.192;2022-08-25T18:52:05;99016.41;;;23.99;44.81
62201;BME280;48197;42.732;27.192;2022-08-25T18:54:32;99012.31;;;23.89;45.19
62201;BME280;48197;42.732;27.192;2022-08-25T18:56:59;99017.16;;;23.71;46.01
62201;BME280;48197;42.732;27.192;2022-08-25T18:59:25;99009.94;;;23.42;46.83
62201;BME280;48197;42.732;27.192;2022-08-25T19:01:52;99009.13;;;23.19;47.50
62201;BME280;48197;42.732;27.192;2022-08-25T19:04:19;99002.66;;;22.96;48.26
62201;BME280;48197;42.732;27.192;2022-08-25T19:06:46;99004.63;;;22.73;49.27
62201;BME280;48197;42.732;27.192;2022-08-25T19:09:12;99009.38;;;22.50;49.84
62201;BME280;48197;42.732;27.192;2022-08-25T19:11:40;99006.69;;;22.29;50.80
62201;BME280;48197;42.732;27.192;2022-08-25T19:14:07;99014.53;;;22.19;51.50
62201;BME280;48197;42.732;27.192;2022-08-25T19:16:35;99009.63;;;22.14;52.01
62201;BME280;48197;42.732;27.192;2022-08-25T19:19:06;99012.69;;;22.11;52.05
62201;BME280;48197;42.732;27.192;2022-08-25T19:21:34;99009.28;;;22.01;51.98
62201;BME280;48197;42.732;27.192;2022-08-25T19:24:01;99015.13;;;21.92;52.71
62201;BME280;48197;42.732;27.192;2022-08-25T19:26:28;99011.97;;;21.84;53.40
62201;BME280;48197;42.732;27.192;2022-08-25T19:28:56;99007.38;;;21.81;53.78
62201;BME280;48197;42.732;27.192;2022-08-25T19:31:23;99015.81;;;21.81;54.34
62201;BME280;48197;42.732;27.192;2022-08-25T19:33:51;99011.28;;;21.63;55.03
62201;BME280;48197;42.732;27.192;2022-08-25T19:36:20;99005.50;;;21.72;56.12
62201;BME280;48197;42.732;27.192;2022-08-25T19:38:47;99011.34;;;21.69;55.84
62201;BME280;48197;42.732;27.192;2022-08-25T19:41:14;99015.28;;;21.51;56.72
62201;BME280;48197;42.732;27.192;2022-08-25T19:43:42;99013.53;;;21.33;57.27
62201;BME280;48197;42.732;27.192;2022-08-25T19:46:11;99023.56;;;21.13;58.46
62201;BME280;48197;42.732;27.192;2022-08-25T19:48:38;99024.09;;;20.91;59.35
62201;BME280;48197;42.732;27.192;2022-08-25T19:51:05;99013.50;;;20.80;59.92
62201;BME280;48197;42.732;27.192;2022-08-25T19:53:32;99012.13;;;20.76;60.80
62201;BME280;48197;42.732;27.192;2022-08-25T19:55:59;99015.38;;;20.69;61.47
62201;BME280;48197;42.732;27.192;2022-08-25T19:58:26;99003.03;;;20.60;61.96
62201;BME280;48197;42.732;27.192;2022-08-25T20:00:58;99000.13;;;20.55;62.33
62201;BME280;48197;42.732;27.192;2022-08-25T20:03:26;98998.56;;;20.54;62.99
62201;BME280;48197;42.732;27.192;2022-08-25T20:05:54;99003.03;;;20.60;63.82
62201;BME280;48197;42.732;27.192;2022-08-25T20:08:21;98997.13;;;20.79;65.20
62201;BME280;48197;42.732;27.192;2022-08-25T20:10:49;98993.97;;;21.18;65.36
62201;BME280;48197;42.732;27.192;2022-08-25T20:13:17;98989.72;;;21.49;65.08
62201;BME280;48197;42.732;27.192;2022-08-25T20:15:44;98995.84;;;21.53;64.92
62201;BME280;48197;42.732;27.192;2022-08-25T20:18:11;98994.78;;;21.45;64.53
62201;BME280;48197;42.732;27.192;2022-08-25T20:20:39;98993.94;;;21.38;64.69
62201;BME280;48197;42.732;27.192;2022-08-25T20:23:05;98983.47;;;21.39;65.47
62201;BME280;48197;42.732;27.192;2022-08-25T20:25:50;98981.88;;;21.58;66.36
62201;BME280;48197;42.732;27.192;2022-08-25T20:28:17;98985.34;;;21.79;66.56
62201;BME280;48197;42.732;27.192;2022-08-25T20:30:44;98979.09;;;21.96;65.65
62201;BME280;48197;42.732;27.192;2022-08-25T20:33:12;98970.88;;;21.92;64.85
62201;BME280;48197;42.732;27.192;2022-08-25T20:35:39;98974.88;;;21.80;65.38
62201;BME280;48197;42.732;27.192;2022-08-25T20:38:06;98955.16;;;21.74;65.28
62201;BME280;48197;42.732;27.192;2022-08-25T20:40:33;98955.88;;;21.69;65.59
62201;BME280;48197;42.732;27.192;2022-08-25T20:42:59;98952.50;;;21.65;65.52
62201;BME280;48197;42.732;27.192;2022-08-25T20:45:29;98959.16;;;21.62;65.36
62201;BME280;48197;42.732;27.192;2022-08-25T20:47:56;98968.06;;;21.60;65.42
62201;BME280;48197;42.732;27.192;2022-08-25T20:50:24;98975.75;;;21.60;65.38
62201;BME280;48197;42.732;27.192;2022-08-25T20:52:51;98968.56;;;21.59;66.42
62201;BME280;48197;42.732;27.192;2022-08-25T20:55:22;98966.34;;;21.69;67.00
62201;BME280;48197;42.732;27.192;2022-08-25T20:57:50;98960.81;;;21.80;67.23
62201;BME280;48197;42.732;27.192;2022-08-25T21:00:18;98951.66;;;21.85;67.26
62201;BME280;48197;42.732;27.192;2022-08-25T21:02:45;98961.91;;;21.88;67.33
62201;BME280;48197;42.732;27.192;2022-08-25T21:05:11;98964.69;;;21.88;67.28
62201;BME280;48197;42.732;27.192;2022-08-25T21:07:39;98966.53;;;21.91;67.69
62201;BME280;48197;42.732;27.192;2022-08-25T21:10:11;98952.47;;;21.97;67.96
62201;BME280;48197;42.732;27.192;2022-08-25T21:12:43;98958.91;;;22.03;68.22
62201;BME280;48197;42.732;27.192;2022-08-25T21:15:11;98953.56;;;22.05;68.10
62201;BME280;48197;42.732;27.192;2022-08-25T21:24:10;98974.06;;;22.11;69.31
62201;BME280;48197;42.732;27.192;2022-08-25T21:26:51;98975.84;;;22.09;69.80
62201;BME280;48197;42.732;27.192;2022-08-25T21:29:20;98973.81;;;22.09;69.50
62201;BME280;48197;42.732;27.192;2022-08-25T21:32:14;98972.75;;;22.07;69.62
62201;BME280;48197;42.732;27.192;2022-08-25T21:34:54;98968.41;;;22.06;69.81
62201;BME280;48197;42.732;27.192;2022-08-25T21:40:15;98954.84;;;22.04;69.53
62201;BME280;48197;42.732;27.192;2022-08-25T21:42:43;98958.22;;;22.14;69.30
62201;BME280;48197;42.732;27.192;2022-08-25T21:45:14;98958.00;;;22.17;69.04
62201;BME280;48197;42.732;27.192;2022-08-25T21:47:49;98970.78;;;22.18;69.20
62201;BME280;48197;42.732;27.192;2022-08-25T21:50:18;98976.13;;;22.16;69.29
62201;BME280;48197;42.732;27.192;2022-08-25T21:52:45;98979.78;;;22.22;69.66
62201;BME280;48197;42.732;27.192;2022-08-25T21:55:16;98985.47;;;22.34;69.13
62201;BME280;48197;42.732;27.192;2022-08-25T21:57:51;98985.50;;;22.39;68.89
62201;BME280;48197;42.732;27.192;2022-08-25T22:00:19;98988.09;;;22.43;69.16
62201;BME280;48197;42.732;27.192;2022-08-25T22:02:47;98987.06;;;22.46;68.82
62201;BME280;48197;42.732;27.192;2022-08-25T22:05:14;98975.09;;;22.51;68.90
62201;BME280;48197;42.732;27.192;2022-08-25T22:07:43;98958.41;;;22.48;69.00
62201;BME280;48197;42.732;27.192;2022-08-25T22:10:10;98957.88;;;22.43;68.75
62201;BME280;48197;42.732;27.192;2022-08-25T22:12:40;98950.97;;;22.39;68.53
62201;BME280;48197;42.732;27.192;2022-08-25T22:15:08;98959.63;;;22.35;68.13
62201;BME280;48197;42.732;27.192;2022-08-25T22:26:56;98970.66;;;22.39;68.97
62201;BME280;48197;42.732;27.192;2022-08-25T22:32:43;98972.41;;;22.31;69.29
62201;BME280;48197;42.732;27.192;2022-08-25T22:35:10;98968.56;;;22.34;68.51
62201;BME280;48197;42.732;27.192;2022-08-25T22:37:37;98956.56;;;22.33;68.38
62201;BME280;48197;42.732;27.192;2022-08-25T22:40:04;98955.53;;;22.31;68.51
62201;BME280;48197;42.732;27.192;2022-08-25T22:42:31;98954.50;;;22.28;68.20
62201;BME280;48197;42.732;27.192;2022-08-25T22:45:00;98952.66;;;22.25;68.15
62201;BME280;48197;42.732;27.192;2022-08-25T22:50:33;98964.91;;;22.22;67.88
62201;BME280;48197;42.732;27.192;2022-08-25T22:52:59;98941.94;;;22.24;68.00
62201;BME280;48197;42.732;27.192;2022-08-25T22:55:26;98944.22;;;22.25;67.38
62201;BME280;48197;42.732;27.192;2022-08-25T22:57:52;98935.03;;;22.25;67.42
62201;BME280;48197;42.732;27.192;2022-08-25T23:00:23;98940.84;;;22.21;67.65
62201;BME280;48197;42.732;27.192;2022-08-25T23:03:00;98944.19;;;22.19;67.87
62201;BME280;48197;42.732;27.192;2022-08-25T23:05:27;98936.50;;;22.20;67.68
62201;BME280;48197;42.732;27.192;2022-08-25T23:07:54;98937.75;;;22.19;67.53
62201;BME280;48197;42.732;27.192;2022-08-25T23:10:20;98940.09;;;22.20;67.43
62201;BME280;48197;42.732;27.192;2022-08-25T23:12:52;98930.38;;;22.21;67.20
62201;BME280;48197;42.732;27.192;2022-08-25T23:15:26;98928.63;;;22.24;67.35
62201;BME280;48197;42.732;27.192;2022-08-25T23:17:52;98911.75;;;22.24;67.16
62201;BME280;48197;42.732;27.192;2022-08-25T23:20:21;98918.34;;;22.21;67.43
62201;BME280;48197;42.732;27.192;2022-08-25T23:23:07;98916.28;;;22.16;67.82
62201;BME280;48197;42.732;27.192;2022-08-25T23:25:38;98911.13;;;22.14;67.68
62201;BME280;48197;42.732;27.192;2022-08-25T23:40:33;98943.41;;;22.19;66.93
